New York, NY (10055)

3:10 PM EST on December 25, 2014 (GMT -0500)
Sutton East | Change Station
CLOSE
Current Station
Personal Weather Station
Location: New York, NY
Elevation: 79 ft
Nearby Weather Stations

Elev 79 ft 40.76 °N, 73.97 °W | Updated 2 minutes ago

Overcast
Overcast
53.8 °F
Feels Like 53.8 °F
N
4.2
Wind Variable Wind from SSE

Today
High -- | Low -- °F
--% Chance of Precip.
Yesterday
High -- | Low -- °F
Precip. -- in
7:18 AM 4:33 PM
Waxing Crescent, 19% visible
Pressure 29.86 in
Visibility 10.0 miles
Clouds Overcast 6000 ft
Dew Point Not available.
Humidity Not available.
Rainfall 0.09 in
Snow Depth Not available.
UV 0 out of 12
Pollen .10 out of 12
Air Quality Not available.
Flu Activity Not available.
METAR KNYC 251951Z AUTO 29012G24KT 10SM OVC060 11/M03 A2989 RMK AO2 SLP112 T01061028 $

More Conditions Fewer Conditions

Pressure 29.86 in
Visibility 10.0 miles
Clouds Overcast 6000 ft
Dew Point Not available.
Humidity Not available.
Rainfall 0.09 in
Snow Depth Not available.
UV 0 out of 12
Pollen .10 out of 12
Air Quality Not available.
Flu Activity Not available.
METAR KNYC 251951Z AUTO 29012G24KT 10SM OVC060 11/M03 A2989 RMK AO2 SLP112 T01061028 $

More Conditions Fewer Conditions

10-Day Weather Forecast

Almanac

Astronomy

Dec. 25, 2014 Rise Set
Actual Time
Civil Twilight
Nautical Twilight
Astronomical Twilight
Moon
Length of Visible Light
Length of Day
Tomorrow will be .
, % of the Moon is Illuminated

Today's Extremes

State Highs State Lows

Community

WunderPhotos

Upload Photos

1,780,388 photos uploaded!

WunderBlogs® & News

Nearby

Air Quality

  Air Quality AQ Index Pollutant
Not available.

Snow Depth

Station Depth Elevation

Earthquake Activity

City Distance Mag. Time & Date
Minimum magnitude displayed is 2.5.

Coastal Water Temperatures

Place Temperature

Nearby Weather Stations